Time;durP1;ratioP1;P1;durP2;ratioP2;P2;SDS_P1;SDS_P2;PMS_P1;PMS_P2;Temp;Humidity;BMP_temperature;BMP_pressure;BME280_temperature;BME280_humidity;BME280_pressure;Samples;Min_cycle;Max_cycle;Signal;HPM_P1;HPM_P2
2021/09/04 00:00:28;;;;;;;34.20;19.58;;;;;;;12.35;92.56;100230.22;4937649;28;20485;-66
2021/09/04 00:02:54;;;;;;;35.13;21.30;;;;;;;12.35;92.37;100227.50;4964564;28;20031;-66
2021/09/04 00:05:19;;;;;;;39.30;21.00;;;;;;;12.26;92.69;100223.56;4960889;28;20117;-66
2021/09/04 00:07:45;;;;;;;39.45;21.50;;;;;;;12.20;93.14;100216.44;4958421;28;20345;-67
2021/09/04 00:10:11;;;;;;;35.78;20.90;;;;;;;12.19;93.60;100217.50;4963342;28;20043;-66
2021/09/04 00:12:37;;;;;;;39.42;20.08;;;;;;;12.12;93.52;100221.16;4957518;28;20042;-66
2021/09/04 00:15:05;;;;;;;43.97;20.83;;;;;;;12.05;93.98;100215.06;4954187;28;20424;-67
2021/09/04 00:17:30;;;;;;;44.92;22.15;;;;;;;12.01;94.46;100219.31;4963871;28;20051;-66
2021/09/04 00:19:56;;;;;;;44.70;23.38;;;;;;;12.13;94.01;100217.41;4965213;28;20042;-66
2021/09/04 00:22:21;;;;;;;36.72;20.50;;;;;;;12.13;93.83;100214.69;4961102;28;20031;-66
2021/09/04 00:24:47;;;;;;;27.20;19.63;;;;;;;12.11;94.07;100206.00;4968487;28;20081;-67
2021/09/04 00:27:12;;;;;;;30.02;20.58;;;;;;;12.07;94.10;100215.66;4953703;28;20110;-66
2021/09/04 00:29:38;;;;;;;33.80;20.67;;;;;;;12.07;94.78;100214.84;4952899;28;20031;-67
2021/09/04 00:32:04;;;;;;;37.53;21.63;;;;;;;12.01;94.80;100213.91;4958284;28;20027;-66
2021/09/04 00:34:30;;;;;;;39.95;21.63;;;;;;;12.04;94.85;100209.94;4960372;28;20404;-66
2021/09/04 00:36:55;;;;;;;35.90;20.40;;;;;;;11.98;94.89;100214.38;4952923;28;20035;-66
2021/09/04 00:39:22;;;;;;;43.50;22.85;;;;;;;11.95;95.16;100206.75;4954255;28;20106;-67
2021/09/04 00:41:47;;;;;;;42.45;21.58;;;;;;;11.96;95.34;100201.13;4948163;28;20441;-67
2021/09/04 00:44:18;;;;;;;39.45;22.70;;;;;;;11.93;95.47;100204.31;4953496;28;20035;-67
2021/09/04 00:46:44;;;;;;;38.35;22.90;;;;;;;11.95;95.52;100198.66;4952212;28;20043;-66
2021/09/04 00:49:10;;;;;;;41.92;23.30;;;;;;;11.98;95.25;100203.56;4955193;28;20091;-66
2021/09/04 00:51:36;;;;;;;37.10;22.35;;;;;;;12.08;94.94;100197.59;4952783;28;20035;-68
2021/09/04 00:54:02;;;;;;;39.72;21.98;;;;;;;12.01;95.15;100200.44;4970608;28;20101;-68
2021/09/04 00:56:28;;;;;;;37.58;22.83;;;;;;;12.09;95.01;100200.03;4958106;28;20047;-67
2021/09/04 00:58:54;;;;;;;49.15;23.23;;;;;;;12.11;94.58;100192.50;4952144;28;20043;-68
2021/09/04 01:01:20;;;;;;;39.28;22.45;;;;;;;12.17;94.83;100188.03;4953261;28;20090;-68
2021/09/04 01:03:47;;;;;;;39.70;23.25;;;;;;;12.06;94.98;100184.31;4970172;28;20085;-67
2021/09/04 01:06:14;;;;;;;40.42;22.05;;;;;;;12.03;95.41;100186.69;4966311;28;20036;-68
2021/09/04 01:08:41;;;;;;;42.40;22.83;;;;;;;11.95;95.55;100185.16;4952568;28;20036;-67
2021/09/04 01:11:08;;;;;;;46.53;22.92;;;;;;;11.99;95.54;100184.44;4963474;28;20399;-67
2021/09/04 01:13:36;;;;;;;36.50;23.05;;;;;;;12.12;95.15;100177.94;4957169;28;20392;-67
2021/09/04 01:16:03;;;;;;;38.03;23.33;;;;;;;12.07;94.72;100177.84;4956630;28;20066;-67
2021/09/04 01:18:29;;;;;;;43.63;25.05;;;;;;;12.04;95.29;100177.53;4971105;28;20439;-67
2021/09/04 01:20:55;;;;;;;42.13;24.13;;;;;;;11.98;95.86;100176.56;4973723;28;20027;-67
2021/09/04 01:23:21;;;;;;;45.88;26.33;;;;;;;11.90;95.97;100167.00;4956496;28;20449;-67
2021/09/04 01:25:53;;;;;;;49.83;26.50;;;;;;;11.85;96.42;100169.59;4956406;28;20031;-67
2021/09/04 01:28:19;;;;;;;51.90;28.05;;;;;;;11.88;96.55;100168.28;4955450;28;20059;-67
2021/09/04 01:30:46;;;;;;;52.20;28.65;;;;;;;11.94;96.31;100168.16;4956045;28;20474;-67
2021/09/04 01:33:12;;;;;;;56.97;27.90;;;;;;;12.00;96.03;100169.94;4955496;28;20083;-67
2021/09/04 01:35:37;;;;;;;65.45;28.60;;;;;;;12.04;95.80;100164.84;4956168;28;20047;-67
2021/09/04 01:38:03;;;;;;;67.45;29.70;;;;;;;11.92;96.37;100164.03;4954430;28;20042;-67
2021/09/04 01:40:29;;;;;;;61.25;31.05;;;;;;;11.89;96.71;100164.53;4970971;28;20027;-67
2021/09/04 01:42:55;;;;;;;57.78;29.30;;;;;;;11.86;96.77;100163.16;4972681;28;20039;-67
2021/09/04 01:45:21;;;;;;;62.47;30.40;;;;;;;11.87;96.74;100162.09;4969785;28;20647;-67
2021/09/04 01:47:48;;;;;;;62.40;29.70;;;;;;;11.88;96.61;100163.72;4974757;28;20035;-67
2021/09/04 01:50:14;;;;;;;50.90;27.70;;;;;;;11.96;96.30;100162.50;4957678;28;20090;-67
2021/09/04 01:52:42;;;;;;;52.30;28.83;;;;;;;11.93;96.11;100160.28;4963341;28;20035;-68
2021/09/04 01:55:10;;;;;;;60.30;29.45;;;;;;;11.89;96.24;100162.66;4960951;28;20051;-67
2021/09/04 01:57:36;;;;;;;56.40;28.95;;;;;;;11.94;96.23;100156.53;4960909;28;20429;-67
2021/09/04 02:00:04;;;;;;;52.58;28.17;;;;;;;11.92;96.54;100162.19;4944872;28;20039;-67
2021/09/04 02:02:30;;;;;;;50.13;27.65;;;;;;;11.92;96.21;100161.34;4957725;28;20384;-67
2021/09/04 02:04:56;;;;;;;49.17;26.63;;;;;;;11.91;95.83;100157.84;4963975;28;20097;-68
2021/09/04 02:07:22;;;;;;;64.47;30.00;;;;;;;11.99;95.91;100157.47;4955601;28;20428;-68
2021/09/04 02:09:47;;;;;;;56.88;28.38;;;;;;;11.98;95.84;100153.13;4941183;28;20110;-67
2021/09/04 02:12:13;;;;;;;53.78;28.50;;;;;;;11.95;95.85;100153.59;4955406;28;20035;-67
2021/09/04 02:14:39;;;;;;;49.45;27.67;;;;;;;11.99;95.62;100152.06;4967104;28;20051;-67
2021/09/04 02:17:04;;;;;;;56.45;30.10;;;;;;;11.95;95.55;100142.81;4963794;28;20121;-67
2021/09/04 02:19:30;;;;;;;48.10;29.48;;;;;;;11.87;96.12;100140.50;4970450;28;20035;-68
2021/09/04 02:21:55;;;;;;;55.30;29.05;;;;;;;11.80;96.74;100139.81;4967166;28;20397;-67
2021/09/04 02:24:21;;;;;;;49.90;29.63;;;;;;;11.78;96.92;100133.84;4966310;28;20547;-67
2021/09/04 02:26:47;;;;;;;55.75;30.80;;;;;;;11.69;97.14;100131.53;4957302;28;20063;-67
2021/09/04 02:29:12;;;;;;;54.78;30.73;;;;;;;11.62;97.32;100141.66;4971370;28;20038;-66
2021/09/04 02:31:38;;;;;;;55.28;30.13;;;;;;;11.62;97.65;100146.22;4960895;28;20090;-67
2021/09/04 02:34:04;;;;;;;52.72;30.67;;;;;;;11.63;97.91;100145.16;4968080;28;20035;-67
2021/09/04 02:36:30;;;;;;;52.83;31.50;;;;;;;11.66;98.04;100134.72;4964714;28;20039;-67
2021/09/04 02:38:55;;;;;;;67.28;31.55;;;;;;;11.65;97.80;100143.88;4959219;28;20037;-67
2021/09/04 02:41:22;;;;;;;57.90;31.52;;;;;;;11.73;97.86;100139.16;4960087;28;20365;-67
2021/09/04 02:43:48;;;;;;;57.50;29.02;;;;;;;11.75;97.39;100137.03;4971326;28;20062;-67
2021/09/04 02:46:13;;;;;;;53.75;29.65;;;;;;;11.74;97.54;100136.19;4962498;28;20039;-67
2021/09/04 02:48:40;;;;;;;53.95;29.20;;;;;;;11.83;96.98;100136.63;4968283;28;20500;-68
2021/09/04 02:51:05;;;;;;;56.13;29.48;;;;;;;11.80;96.56;100131.72;4967898;28;20448;-68
2021/09/04 02:53:31;;;;;;;54.53;29.90;;;;;;;11.81;97.04;100126.06;4963308;28;20061;-67
2021/09/04 02:55:56;;;;;;;54.63;30.77;;;;;;;11.75;97.30;100124.34;4970994;28;20049;-67
2021/09/04 02:58:22;;;;;;;60.03;31.00;;;;;;;11.91;96.71;100121.91;4957054;28;20047;-68
2021/09/04 03:00:47;;;;;;;52.95;30.92;;;;;;;11.80;96.90;100118.22;4966566;28;20050;-67
2021/09/04 03:03:13;;;;;;;56.55;31.48;;;;;;;11.89;96.57;100113.25;4955037;28;20035;-68
2021/09/04 03:05:41;;;;;;;59.70;32.25;;;;;;;11.82;96.72;100114.22;4966093;28;20123;-69
2021/09/04 03:08:07;;;;;;;55.85;31.83;;;;;;;11.76;97.15;100117.06;4957536;28;20027;-68
2021/09/04 03:10:32;;;;;;;65.18;32.80;;;;;;;11.75;97.29;100115.44;4962956;28;20096;-68
2021/09/04 03:12:58;;;;;;;55.83;32.00;;;;;;;11.76;97.16;100115.19;4954789;28;20046;-68
2021/09/04 03:15:24;;;;;;;58.70;33.45;;;;;;;11.72;97.33;100114.03;4973681;28;20066;-68
2021/09/04 03:17:49;;;;;;;62.72;32.42;;;;;;;11.70;97.47;100116.16;4957557;28;20065;-68
2021/09/04 03:20:16;;;;;;;60.67;32.33;;;;;;;11.69;97.56;100117.19;4958248;28;20046;-67
2021/09/04 03:22:41;;;;;;;71.88;35.17;;;;;;;11.65;97.79;100110.66;4967794;28;20038;-67
2021/09/04 03:25:08;;;;;;;71.20;34.15;;;;;;;11.68;98.15;100102.06;4962403;28;20110;-68
2021/09/04 03:27:33;;;;;;;66.25;33.08;;;;;;;11.67;98.12;100103.13;4965290;28;20416;-68
2021/09/04 03:29:59;;;;;;;62.92;33.33;;;;;;;11.69;98.08;100104.56;4966247;28;20063;-68
2021/09/04 03:32:25;;;;;;;67.47;34.10;;;;;;;11.70;98.18;100103.50;4965976;28;20488;-68
2021/09/04 03:34:58;;;;;;;58.58;32.63;;;;;;;11.79;97.16;100098.50;4956043;28;20507;-68
2021/09/04 03:37:23;;;;;;;57.75;32.05;;;;;;;11.82;96.92;100099.91;4956940;28;20041;-67
2021/09/04 03:39:49;;;;;;;60.65;33.83;;;;;;;11.73;97.49;100099.47;4966034;28;20084;-68
2021/09/04 03:42:15;;;;;;;57.45;32.75;;;;;;;11.83;97.14;100106.94;4953424;28;20097;-68
2021/09/04 03:44:41;;;;;;;65.43;32.55;;;;;;;11.77;97.22;100097.13;4965870;28;20536;-68
2021/09/04 03:47:06;;;;;;;55.03;31.38;;;;;;;11.75;97.41;100101.94;4965010;28;20775;-67
2021/09/04 03:49:32;;;;;;;66.07;33.58;;;;;;;11.70;97.42;100092.69;4963744;28;23580;-68
2021/09/04 03:51:57;;;;;;;57.42;31.80;;;;;;;11.69;97.60;100098.31;4935986;28;20038;-68
2021/09/04 03:54:23;;;;;;;61.97;32.90;;;;;;;11.69;97.82;100099.16;4965030;28;20042;-68
2021/09/04 03:56:49;;;;;;;58.03;33.33;;;;;;;11.66;97.90;100094.25;4969544;28;20047;-68
2021/09/04 03:59:14;;;;;;;66.30;35.22;;;;;;;11.65;98.08;100098.00;4970101;28;20054;-68
2021/09/04 04:01:40;;;;;;;58.55;34.15;;;;;;;11.69;97.71;100099.16;4958336;28;20423;-68
2021/09/04 04:04:05;;;;;;;54.25;32.70;;;;;;;11.75;97.28;100100.06;4967688;28;20066;-68
2021/09/04 04:06:31;;;;;;;62.80;33.67;;;;;;;11.72;97.28;100092.44;4946504;28;20045;-68
2021/09/04 04:08:57;;;;;;;65.03;33.00;;;;;;;11.71;97.25;100102.44;4966231;28;20046;-67
2021/09/04 04:11:23;;;;;;;58.95;35.35;;;;;;;11.68;97.39;100093.97;4968750;28;20028;-68
2021/09/04 04:13:48;;;;;;;59.05;34.80;;;;;;;11.72;97.21;100097.84;4953347;28;20770;-67
2021/09/04 04:16:14;;;;;;;60.42;35.00;;;;;;;11.71;97.13;100088.94;4947507;28;20074;-67
2021/09/04 04:18:40;;;;;;;61.85;34.45;;;;;;;11.78;96.96;100083.38;4952848;28;20051;-67
2021/09/04 04:21:05;;;;;;;61.83;33.75;;;;;;;11.78;96.82;100087.97;4960792;28;20031;-67
2021/09/04 04:23:31;;;;;;;64.80;33.58;;;;;;;11.79;96.74;100095.00;4963563;28;20083;-68
2021/09/04 04:25:57;;;;;;;55.05;32.90;;;;;;;11.77;96.89;100097.13;4958319;28;20038;-67
2021/09/04 04:28:23;;;;;;;56.78;33.58;;;;;;;11.71;96.82;100098.91;4965096;28;20088;-68
2021/09/04 04:30:48;;;;;;;54.17;32.45;;;;;;;11.70;97.36;100094.56;4952655;28;20496;-68
2021/09/04 04:33:14;;;;;;;59.75;33.05;;;;;;;11.69;97.05;100107.25;4963418;28;20047;-68
2021/09/04 04:35:40;;;;;;;53.28;32.70;;;;;;;11.68;97.33;100099.38;4954405;28;20039;-68
2021/09/04 04:38:06;;;;;;;57.65;32.30;;;;;;;11.70;97.32;100094.56;4960013;28;20586;-67
2021/09/04 04:40:31;;;;;;;56.22;33.70;;;;;;;11.69;97.11;100096.44;4967449;28;20117;-68
2021/09/04 04:42:57;;;;;;;60.65;32.60;;;;;;;11.71;97.25;100094.34;4954444;28;20399;-68
2021/09/04 04:45:23;;;;;;;55.05;31.88;;;;;;;11.75;96.83;100096.56;4953253;28;20086;-68
2021/09/04 04:47:48;;;;;;;51.28;31.35;;;;;;;11.79;96.50;100098.50;4954470;28;20032;-67
2021/09/04 04:50:15;;;;;;;49.20;30.27;;;;;;;11.74;96.49;100098.41;4965697;28;20027;-67
2021/09/04 04:52:41;;;;;;;48.83;28.98;;;;;;;11.75;96.73;100099.25;4960062;28;20039;-67
2021/09/04 04:55:08;;;;;;;45.55;28.15;;;;;;;11.72;96.80;100097.84;4963756;28;20059;-68
2021/09/04 04:57:33;;;;;;;45.72;28.48;;;;;;;11.65;96.73;100098.00;4968459;28;20031;-68
2021/09/04 04:59:59;;;;;;;51.20;29.25;;;;;;;11.62;96.75;100100.34;4969673;28;20035;-68
2021/09/04 05:02:24;;;;;;;46.83;28.48;;;;;;;11.66;96.65;100096.94;4968499;28;20035;-68
2021/09/04 05:04:50;;;;;;;41.88;27.30;;;;;;;11.63;96.53;100094.72;4963752;28;20043;-67
2021/09/04 05:07:16;;;;;;;47.10;28.38;;;;;;;11.62;96.86;100094.94;4963339;28;20118;-67
2021/09/04 05:09:42;;;;;;;45.38;27.30;;;;;;;11.60;97.11;100100.59;4957779;28;20053;-67
2021/09/04 05:12:08;;;;;;;51.47;28.80;;;;;;;11.70;97.21;100098.09;4957302;28;20082;-67
2021/09/04 05:14:34;;;;;;;49.65;29.20;;;;;;;11.64;97.11;100095.53;4964719;28;20039;-67
2021/09/04 05:17:00;;;;;;;45.67;27.73;;;;;;;11.65;96.70;100102.56;4965191;28;20049;-67
2021/09/04 05:19:25;;;;;;;47.13;28.55;;;;;;;11.63;96.82;100108.22;4960309;28;20066;-67
2021/09/04 05:21:51;;;;;;;51.85;28.92;;;;;;;11.70;97.13;100102.66;4967295;28;20025;-67
2021/09/04 05:24:16;;;;;;;52.75;29.08;;;;;;;11.76;96.37;100103.59;4970230;28;20605;-67
2021/09/04 05:26:42;;;;;;;50.03;29.63;;;;;;;11.81;95.87;100104.47;4958121;28;20122;-68
2021/09/04 05:29:07;;;;;;;62.60;29.90;;;;;;;11.71;96.58;100104.28;4966827;28;20437;-67
2021/09/04 05:31:34;;;;;;;52.08;29.92;;;;;;;11.74;96.47;100108.41;4966535;28;20511;-67
2021/09/04 05:33:59;;;;;;;52.72;29.50;;;;;;;11.66;96.73;100105.03;4959110;28;20039;-68
2021/09/04 05:36:25;;;;;;;51.33;30.10;;;;;;;11.67;96.58;100114.75;4970224;28;20043;-67
2021/09/04 05:38:50;;;;;;;57.10;30.88;;;;;;;11.68;96.90;100104.78;4959582;28;20665;-68
2021/09/04 05:41:16;;;;;;;66.43;29.85;;;;;;;11.64;96.93;100111.72;4956648;28;20027;-68
2021/09/04 05:43:42;;;;;;;52.10;29.88;;;;;;;11.72;97.13;100111.31;4965889;28;20507;-67
2021/09/04 05:46:07;;;;;;;51.95;28.88;;;;;;;11.84;96.14;100116.69;4950675;28;20126;-68
2021/09/04 05:48:33;;;;;;;50.55;28.75;;;;;;;11.79;96.24;100108.50;4955887;28;20067;-68
2021/09/04 05:50:58;;;;;;;49.15;28.50;;;;;;;11.73;96.95;100114.88;4955631;28;20122;-68
2021/09/04 05:53:24;;;;;;;55.28;28.85;;;;;;;11.81;96.51;100115.28;4961439;28;20023;-67
2021/09/04 05:55:50;;;;;;;48.40;27.50;;;;;;;11.87;96.29;100113.50;4969443;28;20066;-67
2021/09/04 05:58:16;;;;;;;48.10;27.02;;;;;;;11.91;95.90;100117.34;4961090;28;20035;-67
2021/09/04 06:00:42;;;;;;;47.47;26.08;;;;;;;11.84;96.62;100116.69;4958936;28;20078;-67
2021/09/04 06:03:08;;;;;;;43.35;26.80;;;;;;;11.80;96.82;100107.44;4949440;28;20106;-67
2021/09/04 06:05:35;;;;;;;44.85;27.67;;;;;;;11.76;97.57;100109.78;4965094;28;20488;-68
2021/09/04 06:08:01;;;;;;;48.80;27.60;;;;;;;11.80;97.38;100105.53;4957282;28;20042;-68
2021/09/04 06:10:26;;;;;;;47.33;27.85;;;;;;;11.78;97.04;100104.97;4955252;28;20040;-67
2021/09/04 06:12:52;;;;;;;51.47;27.92;;;;;;;11.85;96.60;100108.34;4967305;28;20089;-67
2021/09/04 06:15:18;;;;;;;47.63;27.70;;;;;;;11.90;96.38;100110.31;4955397;28;20126;-67
2021/09/04 06:17:43;;;;;;;46.28;26.42;;;;;;;11.93;96.72;100103.59;4955507;28;20047;-67
2021/09/04 06:20:09;;;;;;;49.40;26.95;;;;;;;11.84;97.03;100108.59;4953716;28;20097;-67
2021/09/04 06:22:35;;;;;;;53.63;26.80;;;;;;;11.80;96.76;100100.16;4967221;28;20043;-67
2021/09/04 06:25:01;;;;;;;45.78;27.20;;;;;;;11.77;96.91;100097.13;4955212;28;20043;-68
2021/09/04 06:27:27;;;;;;;42.45;26.45;;;;;;;11.86;96.52;100101.06;4960731;28;20039;-68
2021/09/04 06:29:52;;;;;;;42.75;26.83;;;;;;;11.92;96.45;100101.97;4965301;28;20035;-67
2021/09/04 06:32:18;;;;;;;45.65;26.48;;;;;;;11.90;96.55;100104.09;4957713;28;20513;-67
2021/09/04 06:34:44;;;;;;;53.33;26.98;;;;;;;11.92;96.77;100107.38;4955403;28;20047;-68
2021/09/04 06:37:10;;;;;;;43.65;26.73;;;;;;;11.98;96.18;100101.00;4962082;28;20035;-67
2021/09/04 06:39:35;;;;;;;44.45;26.70;;;;;;;12.05;95.82;100108.97;4964834;28;20053;-67
2021/09/04 06:42:01;;;;;;;46.03;25.38;;;;;;;12.06;95.52;100105.22;4960594;28;20031;-67
2021/09/04 06:44:27;;;;;;;43.78;25.52;;;;;;;12.04;95.76;100107.34;4962278;28;20369;-67
2021/09/04 06:46:52;;;;;;;39.40;25.10;;;;;;;12.04;95.91;100108.16;4966265;28;20031;-66
2021/09/04 06:49:18;;;;;;;47.35;25.67;;;;;;;12.06;95.41;100108.72;4954884;28;20035;-66
2021/09/04 06:51:44;;;;;;;52.33;26.65;;;;;;;12.04;95.53;100108.16;4955819;28;20495;-67
2021/09/04 06:54:09;;;;;;;46.60;25.10;;;;;;;12.10;95.03;100109.88;4956402;28;20031;-67
2021/09/04 06:56:34;;;;;;;43.88;25.30;;;;;;;12.03;95.63;100111.09;4967992;28;20034;-67
2021/09/04 06:59:01;;;;;;;47.60;25.30;;;;;;;12.03;95.74;100105.72;4962195;28;20032;-67
2021/09/04 07:01:27;;;;;;;45.20;25.33;;;;;;;12.11;95.84;100108.81;4959845;28;20031;-66
2021/09/04 07:03:53;;;;;;;54.47;24.63;;;;;;;12.24;94.61;100106.84;4959858;28;20512;-66
2021/09/04 07:06:18;;;;;;;36.40;24.30;;;;;;;12.27;94.92;100104.50;4958009;28;20050;-66
2021/09/04 07:08:44;;;;;;;39.22;24.30;;;;;;;12.33;94.34;100099.19;4966553;28;20042;-66
2021/09/04 07:11:10;;;;;;;41.55;25.40;;;;;;;12.31;94.14;100104.81;4966364;28;20038;-66
2021/09/04 07:13:35;;;;;;;45.08;25.40;;;;;;;12.38;93.61;100105.50;4958035;28;20519;-66
2021/09/04 07:16:01;;;;;;;42.65;24.48;;;;;;;12.42;93.72;100108.50;4956262;28;20041;-66
2021/09/04 07:18:26;;;;;;;40.65;25.15;;;;;;;12.36;93.58;100110.31;4955571;28;20043;-67
2021/09/04 07:20:52;;;;;;;44.88;24.05;;;;;;;12.39;93.14;100117.94;4960430;28;20098;-66
2021/09/04 07:23:18;;;;;;;46.78;23.55;;;;;;;12.44;93.34;100109.09;4961882;28;20097;-66
2021/09/04 07:25:44;;;;;;;54.40;23.70;;;;;;;12.44;93.13;100122.59;4959442;28;20081;-66
2021/09/04 07:28:10;;;;;;;39.60;23.95;;;;;;;12.42;92.94;100117.44;4955209;28;20126;-66
2021/09/04 07:30:36;;;;;;;37.83;23.90;;;;;;;12.48;93.17;100117.53;4956798;28;20126;-66
2021/09/04 07:33:03;;;;;;;42.72;24.27;;;;;;;12.66;92.16;100122.69;4958313;28;20078;-66
2021/09/04 07:35:29;;;;;;;37.20;23.05;;;;;;;12.61;92.30;100121.78;4957380;28;20039;-66
2021/09/04 07:37:55;;;;;;;43.47;24.10;;;;;;;12.56;92.92;100119.81;4958632;28;20057;-66
2021/09/04 07:40:20;;;;;;;42.83;23.58;;;;;;;12.70;92.10;100114.88;4958206;28;20043;-66
2021/09/04 07:42:46;;;;;;;40.72;23.75;;;;;;;12.70;91.99;100118.41;4953970;28;20041;-66
2021/09/04 07:45:12;;;;;;;44.60;23.98;;;;;;;12.73;91.22;100117.91;4953608;28;20042;-66
2021/09/04 07:47:38;;;;;;;45.42;24.40;;;;;;;12.80;91.39;100122.34;4954802;28;20035;-66
2021/09/04 07:50:05;;;;;;;41.88;23.65;;;;;;;12.69;91.69;100124.06;4954703;28;20432;-65
2021/09/04 07:52:31;;;;;;;37.05;23.17;;;;;;;12.80;91.35;100128.53;4966246;28;20070;-66
2021/09/04 07:54:57;;;;;;;38.38;22.45;;;;;;;12.79;91.27;100128.81;4958471;28;20074;-66
2021/09/04 07:57:22;;;;;;;39.97;23.08;;;;;;;12.80;91.54;100120.44;4965898;28;20039;-66
2021/09/04 07:59:48;;;;;;;50.22;22.52;;;;;;;12.78;90.59;100122.56;4953862;28;20102;-66
2021/09/04 08:02:14;;;;;;;43.92;21.75;;;;;;;12.82;90.91;100125.59;4965201;28;20041;-66
2021/09/04 08:04:40;;;;;;;35.75;21.05;;;;;;;12.77;91.24;100120.94;4954553;28;20049;-66
2021/09/04 08:07:06;;;;;;;41.40;24.00;;;;;;;12.82;91.53;100122.91;4953766;28;20536;-66
2021/09/04 08:09:31;;;;;;;35.45;19.63;;;;;;;12.98;90.13;100121.22;4935519;28;20381;-65
2021/09/04 08:11:57;;;;;;;31.35;21.45;;;;;;;12.99;90.17;100126.41;4952931;28;20035;-66
2021/09/04 08:14:22;;;;;;;36.33;20.95;;;;;;;12.97;90.03;100125.00;4963758;28;20039;-66
2021/09/04 08:16:49;;;;;;;35.40;19.50;;;;;;;12.92;89.80;100131.16;4955474;28;20129;-66
2021/09/04 08:19:14;;;;;;;33.40;19.90;;;;;;;12.82;89.83;100129.13;4953528;28;20027;-66
2021/09/04 08:21:41;;;;;;;35.60;18.45;;;;;;;12.84;90.02;100126.97;4954161;28;20038;-66
2021/09/04 08:24:06;;;;;;;34.30;18.90;;;;;;;12.93;89.64;100129.25;4953316;28;20389;-66
2021/09/04 08:26:32;;;;;;;28.15;18.38;;;;;;;12.92;90.07;100135.75;4963558;28;20027;-66
2021/09/04 08:28:57;;;;;;;27.95;17.70;;;;;;;12.98;90.06;100137.44;4957070;28;20500;-66
2021/09/04 08:31:23;;;;;;;33.47;18.45;;;;;;;12.95;90.07;100132.53;4940781;28;20527;-66
2021/09/04 08:33:48;;;;;;;29.00;18.02;;;;;;;13.02;88.59;100139.41;4957309;28;20042;-66
2021/09/04 08:36:15;;;;;;;33.03;18.35;;;;;;;13.13;88.44;100139.56;4956980;28;20178;-66
2021/09/04 08:38:41;;;;;;;35.17;18.02;;;;;;;13.01;89.33;100139.66;4957038;28;20571;-66
2021/09/04 08:41:09;;;;;;;28.33;18.10;;;;;;;12.95;89.80;100140.66;4614379;28;10000133;-66
2021/09/04 08:43:35;;;;;;;35.97;17.52;;;;;;;13.06;88.67;100150.53;4937994;28;20305;-66
2021/09/04 08:46:01;;;;;;;35.40;17.50;;;;;;;13.15;88.00;100148.25;4968510;28;20041;-67
2021/09/04 08:48:27;;;;;;;34.88;16.92;;;;;;;13.13;88.42;100148.47;4967656;28;20034;-66
2021/09/04 08:50:53;;;;;;;27.67;17.40;;;;;;;13.18;88.21;100147.75;4945968;28;20045;-66
2021/09/04 08:53:22;;;;;;;28.75;18.23;;;;;;;13.14;88.63;100152.00;4965973;28;20078;-66
2021/09/04 08:55:49;;;;;;;31.05;17.77;;;;;;;13.25;87.10;100151.06;4966299;28;20037;-66
2021/09/04 08:58:14;;;;;;;40.40;18.52;;;;;;;13.10;87.79;100150.88;4970273;28;20047;-66
2021/09/04 09:00:43;;;;;;;30.73;17.73;;;;;;;13.17;87.99;100144.19;4963494;28;20042;-67
2021/09/04 09:03:22;;;;;;;26.08;17.17;;;;;;;13.23;87.37;100153.22;4953336;28;20062;-66
2021/09/04 09:05:47;;;;;;;28.92;16.67;;;;;;;13.29;87.03;100152.22;4965765;28;20046;-66
2021/09/04 09:08:24;;;;;;;30.85;16.40;;;;;;;13.42;86.96;100151.06;4953358;28;20431;-66
2021/09/04 09:10:51;;;;;;;34.03;17.75;;;;;;;13.32;86.48;100150.91;4953970;28;20066;-66
2021/09/04 09:13:19;;;;;;;32.25;16.30;;;;;;;13.40;87.08;100153.19;4968982;28;20038;-66
2021/09/04 09:15:44;;;;;;;29.95;16.95;;;;;;;13.50;86.62;100155.22;4964380;28;20127;-66
2021/09/04 09:18:13;;;;;;;27.52;17.55;;;;;;;13.50;86.30;100157.09;4957891;28;20723;-66
2021/09/04 09:20:41;;;;;;;31.42;16.77;;;;;;;13.54;86.14;100152.81;4959771;28;21062;-66
2021/09/04 09:23:12;;;;;;;24.52;16.52;;;;;;;13.45;86.51;100161.38;4952108;28;20405;-66
2021/09/04 09:25:40;;;;;;;34.40;16.52;;;;;;;13.65;85.16;100157.28;4952656;28;20035;-66
2021/09/04 09:28:05;;;;;;;30.38;16.70;;;;;;;13.68;85.28;100156.78;4954146;28;20481;-66
2021/09/04 09:30:52;;;;;;;25.98;15.60;;;;;;;13.68;85.80;100161.38;4952052;28;20050;-66
2021/09/04 09:33:20;;;;;;;27.65;16.30;;;;;;;13.85;84.31;100162.09;4965558;28;20047;-66
2021/09/04 09:35:49;;;;;;;24.80;15.90;;;;;;;13.90;84.41;100155.94;4952505;28;20773;-66
2021/09/04 09:38:20;;;;;;;26.08;15.68;;;;;;;13.95;84.20;100160.56;4964391;28;20074;-66
2021/09/04 09:40:46;;;;;;;31.63;16.88;;;;;;;13.86;84.88;100157.53;4961520;28;20038;-66
2021/09/04 09:43:23;;;;;;;25.27;16.55;;;;;;;13.76;84.77;100155.50;4958720;28;20118;-66
2021/09/04 09:45:56;;;;;;;26.55;15.43;;;;;;;13.81;85.02;100155.56;4952737;28;20039;-66
2021/09/04 09:48:30;;;;;;;31.90;16.33;;;;;;;13.75;85.01;100154.69;4954867;28;20031;-66
2021/09/04 09:50:58;;;;;;;23.33;15.60;;;;;;;13.98;84.96;100152.78;4952207;28;20032;-66
2021/09/04 09:53:24;;;;;;;23.00;14.80;;;;;;;14.18;83.15;100157.59;4951874;28;20535;-66
2021/09/04 09:55:53;;;;;;;32.08;15.00;;;;;;;14.12;83.25;100152.38;4965868;28;20039;-66
2021/09/04 09:58:20;;;;;;;23.98;15.40;;;;;;;14.11;82.96;100161.56;4968237;28;20611;-66
2021/09/04 10:00:53;;;;;;;30.00;15.75;;;;;;;14.04;83.96;100154.47;4950538;28;20043;-66
2021/09/04 10:03:20;;;;;;;32.50;15.82;;;;;;;14.05;83.02;100150.69;4957479;28;20101;-66
2021/09/04 10:05:47;;;;;;;29.33;16.33;;;;;;;14.15;82.90;100144.56;4947225;28;20551;-66
2021/09/04 10:08:15;;;;;;;24.23;15.70;;;;;;;14.03;83.76;100150.13;4955920;28;20031;-66
2021/09/04 10:10:43;;;;;;;26.10;14.68;;;;;;;14.25;83.25;100149.22;4961913;28;20141;-66
2021/09/04 10:13:11;;;;;;;27.95;16.10;;;;;;;14.28;82.60;100151.44;4955874;28;20062;-66
2021/09/04 10:15:37;;;;;;;25.23;15.27;;;;;;;14.40;83.23;100155.88;4956979;28;20039;-67
2021/09/04 10:18:07;;;;;;;26.40;14.52;;;;;;;14.49;82.10;100152.44;4960184;28;20046;-66
2021/09/04 10:20:34;;;;;;;27.85;15.20;;;;;;;14.62;81.61;100153.88;4957190;28;20088;-59
2021/09/04 10:23:32;;;;;;;25.45;15.32;;;;;;;14.46;81.43;100146.69;4958820;28;20042;-59
2021/09/04 10:26:21;;;;;;;31.45;15.98;;;;;;;14.33;81.91;100151.47;4907458;29;20052;-65
2021/09/04 10:29:17;;;;;;;27.80;14.15;;;;;;;14.53;81.07;100144.59;4894561;29;21005;-65
2021/09/04 10:32:02;;;;;;;43.30;15.15;;;;;;;14.61;81.04;100146.00;4906189;29;20075;-66
2021/09/04 10:34:42;;;;;;;22.95;14.68;;;;;;;14.69;80.04;100139.28;4907934;29;20119;-65
2021/09/04 10:37:18;;;;;;;26.75;14.85;;;;;;;14.87;80.28;100146.22;4894261;29;20987;-65
2021/09/04 10:40:03;;;;;;;25.05;14.63;;;;;;;14.90;78.65;100149.22;4903948;29;20418;-67
2021/09/04 10:42:31;;;;;;;23.58;14.77;;;;;;;14.89;78.69;100136.72;4906529;29;20674;-66
2021/09/04 10:45:08;;;;;;;27.52;15.40;;;;;;;14.96;79.31;100139.22;4905792;29;20059;-66
2021/09/04 10:47:41;;;;;;;27.13;15.13;;;;;;;14.91;79.29;100142.72;4904903;29;20054;-66
2021/09/04 10:50:16;;;;;;;26.27;14.85;;;;;;;14.97;79.45;100130.00;4906005;29;20556;-66
2021/09/04 10:52:50;;;;;;;25.38;14.40;;;;;;;15.21;79.09;100130.44;4905574;29;20211;-66
2021/09/04 10:55:30;;;;;;;24.10;14.00;;;;;;;15.31;77.17;100134.25;4903725;29;20429;-66
2021/09/04 10:58:15;;;;;;;23.23;14.35;;;;;;;15.26;77.92;100131.53;4905677;29;20075;-66
2021/09/04 11:00:42;;;;;;;27.63;15.18;;;;;;;15.06;78.54;100136.56;4909046;28;20071;-66
2021/09/04 11:03:12;;;;;;;24.63;15.32;;;;;;;14.81;79.57;100131.81;4952146;28;20112;-67
2021/09/04 11:05:41;;;;;;;21.48;13.85;;;;;;;15.06;79.15;100130.34;4957259;28;20038;-67
2021/09/04 11:08:10;;;;;;;26.67;14.93;;;;;;;14.98;79.02;100128.94;4952884;28;20129;-66